createdAt,value
2018-12-20T00:02:22.749Z,10.00
2018-12-20T00:04:57.194Z,9.90
2018-12-20T00:07:31.735Z,10.63
2018-12-20T00:10:07.389Z,9.60
2018-12-20T00:12:42.018Z,10.33
2018-12-20T00:15:17.181Z,11.93
2018-12-20T00:17:52.131Z,10.70
2018-12-20T00:20:26.629Z,10.97
2018-12-20T00:23:01.150Z,10.97
2018-12-20T00:25:35.853Z,11.63
2018-12-20T00:28:10.728Z,11.30
2018-12-20T00:30:45.213Z,12.00
2018-12-20T00:33:19.971Z,12.10
2018-12-20T00:35:54.548Z,11.90
2018-12-20T00:38:29.081Z,12.53
2018-12-20T00:41:03.617Z,11.87
2018-12-20T00:43:37.843Z,12.33
2018-12-20T00:46:12.067Z,12.13
2018-12-20T00:48:46.449Z,12.90
2018-12-20T00:51:20.751Z,12.87
2018-12-20T00:53:55.319Z,11.93
2018-12-20T00:56:29.613Z,12.73
2018-12-20T00:59:04.225Z,12.60
2018-12-20T01:01:38.575Z,12.90
2018-12-20T01:04:13.044Z,13.00
2018-12-20T01:06:47.360Z,13.40
2018-12-20T01:09:21.807Z,13.27
2018-12-20T01:11:56.514Z,14.23
2018-12-20T01:14:31.014Z,12.87
2018-12-20T01:17:05.505Z,13.87
2018-12-20T01:19:40.055Z,13.77
2018-12-20T01:22:14.466Z,13.37
2018-12-20T01:24:48.915Z,14.03
2018-12-20T01:27:23.455Z,12.87
2018-12-20T01:29:57.918Z,13.50
2018-12-20T01:32:32.589Z,14.00
2018-12-20T01:35:07.281Z,12.60
2018-12-20T01:37:41.791Z,14.00
2018-12-20T01:40:16.247Z,13.50
2018-12-20T01:42:50.621Z,14.23
2018-12-20T01:45:24.913Z,12.53
2018-12-20T01:47:59.295Z,12.00
2018-12-20T01:50:33.689Z,11.97
2018-12-20T01:53:07.996Z,12.23
2018-12-20T01:55:42.341Z,11.90
2018-12-20T01:58:16.882Z,13.30
2018-12-20T02:00:51.275Z,10.60
2018-12-20T02:03:25.673Z,12.93
2018-12-20T02:06:00.029Z,11.77
2018-12-20T02:08:34.418Z,11.23
2018-12-20T02:11:09.009Z,11.47
2018-12-20T02:13:43.485Z,11.10
2018-12-20T02:16:18.013Z,10.43
2018-12-20T02:18:52.550Z,10.40
2018-12-20T02:21:27.155Z,10.47
2018-12-20T02:24:01.833Z,10.93
2018-12-20T02:26:36.485Z,9.83
2018-12-20T02:29:11.179Z,10.90
2018-12-20T02:31:46.150Z,11.37
2018-12-20T02:34:20.901Z,10.20
2018-12-20T02:36:55.555Z,10.50
2018-12-20T02:39:30.107Z,10.53
2018-12-20T02:42:04.791Z,9.20
2018-12-20T02:44:39.285Z,9.60
2018-12-20T02:47:13.799Z,9.77
2018-12-20T02:49:48.385Z,10.77
2018-12-20T02:52:22.798Z,9.00
2018-12-20T02:54:57.322Z,8.20
2018-12-20T02:57:31.830Z,8.57
2018-12-20T03:00:06.457Z,9.50
2018-12-20T03:02:41.045Z,9.07
2018-12-20T03:05:15.714Z,7.70
2018-12-20T03:07:50.230Z,7.97
2018-12-20T03:10:24.750Z,7.90
2018-12-20T03:12:59.306Z,7.20
2018-12-20T03:15:33.824Z,7.13
2018-12-20T03:18:08.138Z,6.70
2018-12-20T03:20:42.442Z,6.20
2018-12-20T03:23:16.765Z,6.97
2018-12-20T03:25:51.226Z,6.37
2018-12-20T03:28:25.922Z,6.50
2018-12-20T03:31:00.393Z,7.27
2018-12-20T03:33:34.790Z,6.47
2018-12-20T03:36:09.307Z,6.30
2018-12-20T03:38:43.822Z,7.20
2018-12-20T03:41:18.286Z,7.40
2018-12-20T03:43:52.699Z,7.47
2018-12-20T03:46:27.097Z,7.30
2018-12-20T03:49:01.340Z,7.20
2018-12-20T03:51:35.659Z,8.10
2018-12-20T03:54:10.394Z,8.00
2018-12-20T03:56:45.080Z,6.97
2018-12-20T03:59:19.757Z,8.10
2018-12-20T04:01:54.526Z,8.00
2018-12-20T04:04:28.939Z,7.30
2018-12-20T04:07:03.548Z,7.40
2018-12-20T04:09:38.009Z,8.07
2018-12-20T04:12:12.420Z,7.07
2018-12-20T04:14:46.678Z,7.53
2018-12-20T04:17:21.026Z,7.43
2018-12-20T04:19:55.544Z,7.40
2018-12-20T04:22:30.087Z,7.67
2018-12-20T04:25:04.723Z,8.43
2018-12-20T04:27:40.797Z,8.63
2018-12-20T04:30:15.230Z,7.43
2018-12-20T04:32:49.919Z,8.73
2018-12-20T04:35:24.369Z,8.50
2018-12-20T04:37:58.658Z,8.63
2018-12-20T04:40:33.025Z,7.70
2018-12-20T04:43:07.400Z,8.40
2018-12-20T04:45:46.652Z,7.67
2018-12-20T04:48:18.173Z,7.83
2018-12-20T04:50:52.751Z,8.57
2018-12-20T04:53:27.075Z,7.93
2018-12-20T04:56:01.678Z,9.33
2018-12-20T04:58:36.336Z,10.27
2018-12-20T05:01:10.973Z,9.90
2018-12-20T05:03:45.829Z,8.23
2018-12-20T05:06:20.175Z,8.17
2018-12-20T05:08:54.609Z,8.70
2018-12-20T05:11:29.346Z,8.40
2018-12-20T05:14:10.505Z,8.80
2018-12-20T05:16:45.153Z,8.63
2018-12-20T05:19:19.750Z,8.57
2018-12-20T05:21:54.545Z,8.30
2018-12-20T05:24:29.086Z,9.13
2018-12-20T05:27:03.340Z,8.63
2018-12-20T05:29:37.702Z,8.10
2018-12-20T05:32:11.941Z,8.63
2018-12-20T05:34:46.622Z,8.97
2018-12-20T05:37:21.126Z,8.03
2018-12-20T05:39:55.523Z,8.43
2018-12-20T05:42:29.989Z,9.47
2018-12-20T05:45:04.782Z,9.57
2018-12-20T05:47:39.149Z,9.40
2018-12-20T05:50:13.613Z,9.60
2018-12-20T05:52:48.393Z,8.90
2018-12-20T05:55:22.950Z,9.57
2018-12-20T05:57:57.638Z,9.40
2018-12-20T06:00:32.244Z,10.90
2018-12-20T06:03:06.621Z,10.20
2018-12-20T06:05:41.022Z,9.13
2018-12-20T06:08:15.517Z,11.63
2018-12-20T06:10:49.869Z,9.57
2018-12-20T06:13:24.355Z,9.37
2018-12-20T06:15:58.805Z,9.60
2018-12-20T06:18:33.246Z,9.57
2018-12-20T06:21:08.064Z,8.20
2018-12-20T06:23:42.501Z,8.50
2018-12-20T06:26:17.026Z,5.97
2018-12-20T06:28:51.606Z,8.00
2018-12-20T06:31:26.006Z,7.33
2018-12-20T06:34:00.298Z,8.13
2018-12-20T06:36:34.707Z,9.90
2018-12-20T06:39:09.202Z,8.50
2018-12-20T06:41:43.952Z,8.10
2018-12-20T06:44:18.285Z,8.27
2018-12-20T06:46:52.558Z,7.67
2018-12-20T06:49:26.924Z,8.40
2018-12-20T06:52:01.075Z,8.10
2018-12-20T06:54:35.426Z,7.57
2018-12-20T06:57:11.407Z,8.07
2018-12-20T06:59:45.741Z,7.20
2018-12-20T07:02:20.040Z,7.30
2018-12-20T07:04:54.529Z,6.93
2018-12-20T07:07:28.841Z,7.00
2018-12-20T07:10:03.277Z,5.90
2018-12-20T07:12:37.476Z,5.10
2018-12-20T07:15:12.041Z,5.53
2018-12-20T07:17:46.413Z,4.20
2018-12-20T07:20:20.631Z,5.03
2018-12-20T07:22:55.351Z,5.03
2018-12-20T07:25:29.808Z,4.20
2018-12-20T07:28:04.289Z,4.90
2018-12-20T07:30:38.717Z,3.97
2018-12-20T07:33:13.090Z,5.50
2018-12-20T07:35:47.416Z,5.40
2018-12-20T07:38:21.819Z,4.27
2018-12-20T07:40:56.281Z,5.47
2018-12-20T07:43:30.501Z,5.53
2018-12-20T07:46:04.894Z,5.80
2018-12-20T07:48:39.337Z,6.00
2018-12-20T07:51:13.640Z,5.63
2018-12-20T07:53:47.943Z,5.30
2018-12-20T07:56:22.191Z,5.43
2018-12-20T07:58:56.742Z,5.83
2018-12-20T08:01:31.097Z,4.80
2018-12-20T08:04:05.449Z,5.20
2018-12-20T08:06:39.804Z,5.03
2018-12-20T08:09:14.213Z,6.37
2018-12-20T08:11:48.480Z,6.03
2018-12-20T08:14:22.709Z,4.93
2018-12-20T08:16:57.076Z,5.50
2018-12-20T08:19:36.262Z,5.90
2018-12-20T08:22:07.745Z,5.40
2018-12-20T08:24:42.077Z,5.67
2018-12-20T08:27:16.341Z,5.20
2018-12-20T08:29:50.684Z,5.80
2018-12-20T08:32:25.267Z,5.07
2018-12-20T08:34:59.673Z,5.17
2018-12-20T08:37:34.136Z,5.07
2018-12-20T08:40:09.952Z,5.13
2018-12-20T08:42:44.395Z,5.90
2018-12-20T08:45:18.706Z,4.97
2018-12-20T08:47:52.893Z,5.03
2018-12-20T08:50:27.202Z,5.37
2018-12-20T08:53:01.499Z,7.60
2018-12-20T08:55:35.817Z,5.60
2018-12-20T08:58:10.065Z,5.63
2018-12-20T09:00:44.334Z,5.67
2018-12-20T09:03:18.686Z,5.30
2018-12-20T09:05:52.877Z,5.33
2018-12-20T09:08:27.188Z,5.47
2018-12-20T09:11:01.408Z,5.00
2018-12-20T09:13:35.853Z,4.60
2018-12-20T09:16:10.181Z,4.60
2018-12-20T09:18:44.537Z,3.93
2018-12-20T09:21:18.889Z,3.57
2018-12-20T09:23:53.190Z,3.63
2018-12-20T09:26:27.546Z,4.00
2018-12-20T09:29:02.566Z,3.83
2018-12-20T09:31:37.862Z,3.17
2018-12-20T09:34:12.229Z,3.83
2018-12-20T09:36:47.585Z,3.50
2018-12-20T09:39:22.093Z,3.73
2018-12-20T09:41:56.381Z,3.40
2018-12-20T09:44:30.689Z,3.67
2018-12-20T09:47:11.973Z,3.60
2018-12-20T09:49:46.649Z,3.23
2018-12-20T09:52:21.661Z,4.20
2018-12-20T09:54:55.876Z,3.20
2018-12-20T09:57:30.193Z,2.70
2018-12-20T10:00:05.610Z,3.30
2018-12-20T10:02:40.617Z,2.80
2018-12-20T10:05:14.977Z,2.50
2018-12-20T10:07:49.271Z,2.60
2018-12-20T10:10:23.575Z,3.10
2018-12-20T10:12:58.346Z,2.90
2018-12-20T10:15:32.664Z,3.20
2018-12-20T10:18:07.975Z,3.30
2018-12-20T10:20:42.287Z,2.63
2018-12-20T10:23:16.575Z,4.43
2018-12-20T10:25:50.882Z,3.00
2018-12-20T10:28:25.198Z,2.50
2018-12-20T10:30:59.529Z,2.70
2018-12-20T10:33:35.339Z,2.33
2018-12-20T10:36:09.705Z,2.40
2018-12-20T10:38:43.909Z,2.77
2018-12-20T10:41:18.599Z,2.40
2018-12-20T10:43:53.083Z,2.90
2018-12-20T10:46:27.385Z,2.10
2018-12-20T10:49:01.753Z,2.27
2018-12-20T10:51:36.142Z,2.70
2018-12-20T10:54:10.457Z,2.43
2018-12-20T10:56:44.697Z,2.50
2018-12-20T10:59:18.911Z,2.27
2018-12-20T11:01:59.026Z,2.47
2018-12-20T11:04:38.613Z,1.90
2018-12-20T11:07:18.333Z,2.20
2018-12-20T11:09:57.913Z,2.23
2018-12-20T11:12:50.898Z,1.80
2018-12-20T11:15:25.257Z,2.57
2018-12-20T11:17:59.449Z,2.20
2018-12-20T11:20:35.565Z,2.00
2018-12-20T11:23:10.048Z,1.40
2018-12-20T11:25:44.382Z,1.73
2018-12-20T11:28:19.149Z,1.70
2018-12-20T11:30:53.385Z,3.27
2018-12-20T11:33:27.639Z,2.30
2018-12-20T11:36:04.128Z,2.33
2018-12-20T11:38:38.490Z,2.13
2018-12-20T11:41:12.925Z,2.60
2018-12-20T11:43:47.298Z,1.80
2018-12-20T11:46:21.900Z,2.23
2018-12-20T11:48:57.286Z,2.47
2018-12-20T11:51:32.786Z,1.60
2018-12-20T11:54:07.251Z,2.10
2018-12-20T11:56:41.726Z,1.80
2018-12-20T11:59:16.210Z,2.30
2018-12-20T12:01:50.423Z,1.93
2018-12-20T12:04:24.683Z,2.60
2018-12-20T12:07:00.250Z,1.90
2018-12-20T12:09:34.485Z,2.37
2018-12-20T12:12:09.458Z,2.87
2018-12-20T12:14:43.738Z,2.10
2018-12-20T12:17:17.940Z,2.07
2018-12-20T12:19:52.277Z,2.43
2018-12-20T12:22:26.757Z,2.13
2018-12-20T12:25:01.108Z,1.80
2018-12-20T12:27:36.669Z,1.97
2018-12-20T12:30:10.845Z,1.90
2018-12-20T12:32:46.476Z,1.87
2018-12-20T12:35:20.750Z,2.07
2018-12-20T12:37:55.123Z,1.43
2018-12-20T12:40:29.714Z,1.90
2018-12-20T12:43:04.000Z,1.87
2018-12-20T12:45:38.277Z,2.10
2018-12-20T12:48:12.490Z,1.60
2018-12-20T12:50:46.914Z,2.07
2018-12-20T12:53:21.289Z,2.40
2018-12-20T12:55:56.118Z,2.10
2018-12-20T12:58:30.513Z,2.10
2018-12-20T13:01:05.731Z,2.33
2018-12-20T13:03:39.889Z,2.13
2018-12-20T13:06:14.237Z,2.50
2018-12-20T13:08:48.752Z,2.50
2018-12-20T13:11:23.087Z,2.30
2018-12-20T13:13:59.050Z,2.30
2018-12-20T13:16:33.373Z,2.00
2018-12-20T13:19:07.873Z,2.27
2018-12-20T13:21:43.394Z,2.20
2018-12-20T13:24:17.717Z,2.40
2018-12-20T13:26:53.137Z,2.50
2018-12-20T13:29:27.549Z,1.90
2018-12-20T13:32:16.617Z,2.43
2018-12-20T13:34:50.901Z,2.50
2018-12-20T13:37:25.149Z,2.20
2018-12-20T13:39:59.485Z,2.37
2018-12-20T13:42:34.006Z,2.83
2018-12-20T13:45:08.527Z,2.70
2018-12-20T13:47:42.725Z,3.00
2018-12-20T13:50:17.270Z,2.30
2018-12-20T13:52:51.674Z,2.73
2018-12-20T13:55:26.345Z,2.70
2018-12-20T13:58:00.795Z,3.50
2018-12-20T14:00:36.437Z,2.67
2018-12-20T14:03:10.752Z,2.93
2018-12-20T14:05:45.121Z,2.43
2018-12-20T14:08:19.528Z,2.67
2018-12-20T14:10:53.849Z,2.63
2018-12-20T14:13:28.112Z,3.13
2018-12-20T14:16:02.739Z,2.33
2018-12-20T14:18:37.049Z,3.13
2018-12-20T14:21:11.991Z,2.33
2018-12-20T14:23:46.686Z,2.70
2018-12-20T14:26:21.115Z,2.30
2018-12-20T14:28:55.499Z,3.00
2018-12-20T14:31:29.760Z,3.40
2018-12-20T14:34:04.261Z,4.17
2018-12-20T14:36:39.734Z,4.03
2018-12-20T14:39:13.990Z,6.70
2018-12-20T14:41:48.170Z,4.20
2018-12-20T14:44:22.477Z,3.80
2018-12-20T14:46:56.924Z,3.33
2018-12-20T14:49:31.253Z,4.13
2018-12-20T14:52:05.660Z,4.10
2018-12-20T14:54:40.062Z,3.73
2018-12-20T14:57:14.563Z,2.97
2018-12-20T14:59:48.973Z,3.67
2018-12-20T15:02:24.550Z,3.17
2018-12-20T15:04:58.846Z,3.43
2018-12-20T15:07:33.206Z,3.30
2018-12-20T15:10:09.441Z,3.47
2018-12-20T15:12:43.597Z,3.80
2018-12-20T15:15:17.790Z,3.17
2018-12-20T15:17:52.030Z,3.50
2018-12-20T15:20:26.256Z,4.10
2018-12-20T15:23:00.530Z,3.10
2018-12-20T15:25:35.005Z,3.70
2018-12-20T15:28:09.342Z,3.90
2018-12-20T15:30:44.838Z,3.70
2018-12-20T15:33:19.118Z,4.10
2018-12-20T15:35:53.401Z,5.27
2018-12-20T15:38:27.713Z,4.80
2018-12-20T15:41:02.378Z,4.23
2018-12-20T15:43:36.754Z,4.17
2018-12-20T15:46:11.125Z,6.27
2018-12-20T15:48:47.170Z,5.20
2018-12-20T15:51:21.551Z,6.33
2018-12-20T15:53:55.847Z,24.00
2018-12-20T15:56:31.482Z,24.83
2018-12-20T15:59:05.769Z,23.50
2018-12-20T16:01:41.966Z,5.90
2018-12-20T16:04:16.196Z,9.30
2018-12-20T16:06:50.818Z,23.27
2018-12-20T16:09:24.920Z,8.40
2018-12-20T16:11:59.221Z,5.43
2018-12-20T16:14:33.545Z,5.83
2018-12-20T16:17:07.981Z,4.70
2018-12-20T16:19:45.890Z,5.30
2018-12-20T16:22:20.048Z,5.60
2018-12-20T16:24:56.494Z,6.50
2018-12-20T16:27:31.634Z,5.20
2018-12-20T16:30:08.401Z,6.20
2018-12-20T16:32:46.770Z,5.40
2018-12-20T16:35:21.143Z,7.33
2018-12-20T16:37:55.465Z,8.77
2018-12-20T16:40:29.937Z,7.33
2018-12-20T16:43:04.386Z,9.17
2018-12-20T16:45:41.119Z,7.40
2018-12-20T16:48:19.719Z,7.70
2018-12-20T16:50:54.046Z,10.07
2018-12-20T16:53:28.574Z,8.57
2018-12-20T16:56:03.060Z,7.03
2018-12-20T16:58:37.541Z,6.83
2018-12-20T17:01:14.855Z,7.57
2018-12-20T17:03:49.382Z,12.10
2018-12-20T17:06:23.682Z,12.63
2018-12-20T17:08:57.994Z,6.83
2018-12-20T17:11:32.276Z,6.03
2018-12-20T17:14:06.607Z,6.63
2018-12-20T17:16:41.005Z,6.83
2018-12-20T17:19:22.001Z,5.40
2018-12-20T17:21:51.553Z,5.70
2018-12-20T17:24:26.328Z,5.30
2018-12-20T17:27:00.495Z,5.30
2018-12-20T17:29:34.773Z,6.40
2018-12-20T17:32:09.085Z,5.73
2018-12-20T17:34:43.365Z,5.60
2018-12-20T17:37:17.764Z,5.87
2018-12-20T17:39:53.598Z,5.20
2018-12-20T17:42:28.162Z,7.80
2018-12-20T17:45:02.542Z,5.73
2018-12-20T17:47:37.149Z,5.27
2018-12-20T17:50:11.433Z,10.20
2018-12-20T17:52:46.998Z,7.50
2018-12-20T17:55:21.252Z,7.87
2018-12-20T17:57:55.693Z,6.30
2018-12-20T18:00:30.076Z,7.93
2018-12-20T18:03:04.893Z,6.20
2018-12-20T18:05:39.565Z,4.70
2018-12-20T18:08:13.789Z,5.53
2018-12-20T18:10:48.194Z,5.67
2018-12-20T18:13:22.530Z,6.33
2018-12-20T18:15:57.073Z,6.57
2018-12-20T18:18:33.210Z,6.47
2018-12-20T18:21:07.463Z,6.33
2018-12-20T18:23:41.805Z,6.80
2018-12-20T18:26:16.210Z,6.00
2018-12-20T18:28:51.087Z,6.70
2018-12-20T18:31:25.480Z,7.10
2018-12-20T18:33:59.789Z,6.37
2018-12-20T18:36:34.161Z,7.20
2018-12-20T18:39:08.617Z,7.40
2018-12-20T18:41:43.518Z,8.57
2018-12-20T18:44:17.849Z,9.37
2018-12-20T18:46:52.281Z,10.13
2018-12-20T18:49:28.658Z,8.83
2018-12-20T18:52:03.137Z,9.03
2018-12-20T18:54:39.076Z,7.70
2018-12-20T18:57:13.683Z,8.70
2018-12-20T18:59:47.829Z,8.37
2018-12-20T19:02:22.437Z,8.47
2018-12-20T19:04:56.734Z,8.33
2018-12-20T19:07:31.035Z,11.37
2018-12-20T19:10:06.453Z,9.70
2018-12-20T19:12:41.151Z,10.63
2018-12-20T19:15:15.321Z,10.07
2018-12-20T19:17:49.906Z,10.07
2018-12-20T19:20:24.284Z,9.57
2018-12-20T19:22:58.445Z,8.97
2018-12-20T19:25:34.189Z,9.30
2018-12-20T19:28:08.577Z,8.87
2018-12-20T19:30:42.903Z,10.10
2018-12-20T19:33:17.459Z,9.67
2018-12-20T19:35:51.603Z,9.53
2018-12-20T19:38:25.949Z,8.90
2018-12-20T19:41:00.279Z,8.90
2018-12-20T19:43:34.698Z,8.93
2018-12-20T19:46:08.965Z,8.83
2018-12-20T19:48:43.289Z,7.40
2018-12-20T19:51:17.513Z,7.67
2018-12-20T19:53:51.810Z,8.30
2018-12-20T19:56:26.095Z,8.23
2018-12-20T19:59:00.789Z,7.23
2018-12-20T20:01:34.960Z,7.90
2018-12-20T20:04:09.269Z,8.00
2018-12-20T20:06:43.686Z,7.33
2018-12-20T20:09:19.318Z,7.27
2018-12-20T20:11:53.542Z,8.47
2018-12-20T20:14:27.877Z,6.67
2018-12-20T20:17:02.125Z,6.33
2018-12-20T20:19:36.419Z,6.70
2018-12-20T20:22:10.740Z,5.80
2018-12-20T20:24:46.834Z,5.43
2018-12-20T20:27:21.386Z,5.90
2018-12-20T20:29:55.745Z,6.20
2018-12-20T20:32:32.066Z,6.70
2018-12-20T20:35:06.786Z,6.00
2018-12-20T20:37:41.021Z,5.50
2018-12-20T20:40:15.428Z,5.60
2018-12-20T20:42:50.331Z,5.50
2018-12-20T20:45:24.547Z,5.17
2018-12-20T20:47:58.923Z,6.10
2018-12-20T20:50:33.310Z,5.87
2018-12-20T20:53:07.593Z,6.07
2018-12-20T20:55:42.317Z,7.00
2018-12-20T20:58:16.516Z,7.17
2018-12-20T21:00:51.005Z,6.33
2018-12-20T21:03:25.305Z,6.73
2018-12-20T21:06:00.165Z,6.90
2018-12-20T21:08:34.469Z,6.63
2018-12-20T21:11:08.677Z,7.30
2018-12-20T21:13:43.110Z,6.77
2018-12-20T21:16:17.469Z,6.07
2018-12-20T21:18:53.674Z,5.53
2018-12-20T21:21:27.824Z,7.40
2018-12-20T21:24:02.141Z,5.17
2018-12-20T21:26:36.517Z,6.90
2018-12-20T21:29:10.745Z,6.60
2018-12-20T21:31:45.698Z,5.30
2018-12-20T21:34:20.043Z,6.23
2018-12-20T21:36:54.298Z,5.57
2018-12-20T21:39:28.587Z,6.20
2018-12-20T21:42:02.985Z,6.30
2018-12-20T21:44:37.601Z,5.50
2018-12-20T21:47:13.132Z,5.43
2018-12-20T21:49:47.344Z,5.40
2018-12-20T21:52:21.665Z,6.60
2018-12-20T21:54:57.926Z,7.20
2018-12-20T21:57:32.289Z,6.10
2018-12-20T22:00:09.516Z,5.90
2018-12-20T22:02:43.988Z,6.43
2018-12-20T22:05:18.438Z,6.17
2018-12-20T22:07:52.766Z,5.23
2018-12-20T22:10:29.242Z,5.93
2018-12-20T22:13:03.505Z,5.57
2018-12-20T22:15:38.173Z,6.97
2018-12-20T22:18:12.549Z,7.73
2018-12-20T22:20:47.394Z,6.80
2018-12-20T22:23:25.549Z,6.63
2018-12-20T22:25:59.913Z,5.77
2018-12-20T22:28:34.321Z,5.23
2018-12-20T22:31:10.798Z,5.27
2018-12-20T22:33:45.149Z,5.50
2018-12-20T22:36:19.517Z,4.27
2018-12-20T22:38:53.703Z,4.77
2018-12-20T22:41:28.865Z,4.43
2018-12-20T22:44:03.093Z,4.60
2018-12-20T22:46:37.973Z,4.40
2018-12-20T22:49:12.342Z,4.57
2018-12-20T22:51:47.902Z,4.23
2018-12-20T22:54:22.206Z,3.90
2018-12-20T22:56:56.522Z,3.73
2018-12-20T22:59:30.705Z,4.40
2018-12-20T23:02:04.945Z,5.40
2018-12-20T23:04:39.207Z,5.33
2018-12-20T23:07:13.651Z,5.97
2018-12-20T23:09:48.069Z,6.87
2018-12-20T23:12:23.800Z,7.30
2018-12-20T23:14:59.761Z,6.47
2018-12-20T23:17:34.240Z,6.20
2018-12-20T23:20:08.654Z,6.37
2018-12-20T23:22:44.358Z,5.63
2018-12-20T23:25:18.565Z,5.93
2018-12-20T23:27:53.066Z,6.53
2018-12-20T23:30:28.258Z,7.30
2018-12-20T23:33:02.598Z,6.93
2018-12-20T23:35:36.817Z,6.33
2018-12-20T23:38:11.245Z,6.60
2018-12-20T23:40:46.638Z,7.00
2018-12-20T23:43:20.817Z,6.73
2018-12-20T23:45:55.202Z,6.37
2018-12-20T23:48:29.702Z,6.60
2018-12-20T23:51:13.304Z,6.93
2018-12-20T23:53:42.014Z,7.47
2018-12-20T23:56:16.442Z,5.77
2018-12-20T23:58:50.721Z,5.50
